Time;durP1;ratioP1;P1;durP2;ratioP2;P2;SDS_P1;SDS_P2;PMS_P1;PMS_P2;Temp;Humidity;BMP_temperature;BMP_pressure;BME280_temperature;BME280_humidity;BME280_pressure;Samples;Min_cycle;Max_cycle;Signal;HPM_P1;HPM_P2
2023/07/16 00:02:16;;;;;;;0.50;0.30;;;19.00;99.90;;;;;;5052025;28;20476;-82
2023/07/16 00:04:42;;;;;;;0.80;0.67;;;19.00;99.90;;;;;;5053670;28;20466;-82
2023/07/16 00:07:11;;;;;;;2.10;0.70;;;19.00;99.90;;;;;;5053606;28;20462;-82
2023/07/16 00:09:38;;;;;;;0.93;0.67;;;19.00;99.90;;;;;;5054616;28;20444;-83
2023/07/16 00:12:05;;;;;;;0.50;0.30;;;19.10;99.90;;;;;;5053010;28;20534;-82
2023/07/16 00:14:32;;;;;;;0.60;0.60;;;19.10;99.90;;;;;;5045435;28;20466;-83
2023/07/16 00:16:59;;;;;;;0.50;0.40;;;19.00;99.90;;;;;;5053694;28;20452;-82
2023/07/16 00:19:26;;;;;;;1.63;1.00;;;19.00;99.90;;;;;;5052928;28;20448;-83
2023/07/16 00:21:52;;;;;;;0.50;0.40;;;18.80;99.90;;;;;;5052783;28;21033;-82
2023/07/16 00:24:21;;;;;;;0.50;0.40;;;18.80;99.90;;;;;;5054857;28;20471;-82
2023/07/16 00:26:47;;;;;;;0.50;0.37;;;18.80;99.90;;;;;;5053846;28;20455;-82
2023/07/16 00:29:14;;;;;;;0.50;0.30;;;18.80;99.90;;;;;;5056184;28;20539;-82
2023/07/16 00:31:41;;;;;;;0.50;0.40;;;18.80;99.90;;;;;;5054137;28;20444;-83
2023/07/16 00:34:08;;;;;;;0.50;0.40;;;18.80;99.90;;;;;;5041822;28;20527;-81
2023/07/16 00:36:34;;;;;;;0.50;0.30;;;18.80;99.90;;;;;;5043350;28;20886;-82
2023/07/16 00:39:01;;;;;;;0.50;0.40;;;18.80;99.90;;;;;;5045283;28;20449;-81
2023/07/16 00:41:29;;;;;;;0.50;0.30;;;18.70;99.90;;;;;;5044778;28;20480;-82
2023/07/16 00:43:56;;;;;;;0.50;0.33;;;18.50;99.90;;;;;;5045316;28;20448;-81
2023/07/16 00:46:23;;;;;;;0.50;0.40;;;18.40;99.90;;;;;;5043730;28;20448;-82
2023/07/16 00:48:50;;;;;;;0.50;0.30;;;18.30;99.90;;;;;;5045444;28;20453;-81
2023/07/16 00:51:18;;;;;;;0.50;0.30;;;18.20;99.90;;;;;;5045000;28;20971;-82
2023/07/16 00:53:46;;;;;;;0.50;0.37;;;18.10;99.90;;;;;;5044472;28;20445;-81
2023/07/16 00:56:16;;;;;;;0.50;0.30;;;18.00;99.90;;;;;;5044855;28;20489;-82
2023/07/16 00:58:44;;;;;;;0.50;0.30;;;17.90;99.90;;;;;;5044791;28;20444;-82
2023/07/16 01:01:11;;;;;;;0.50;0.40;;;17.90;99.90;;;;;;5043981;28;20603;-81
2023/07/16 01:03:39;;;;;;;0.50;0.33;;;17.90;99.90;;;;;;5044340;28;20686;-81
2023/07/16 01:06:12;;;;;;;0.83;0.83;;;17.80;99.90;;;;;;5045038;28;20551;-82
2023/07/16 01:08:43;;;;;;;0.50;0.30;;;17.80;99.90;;;;;;5037739;28;20445;-82
2023/07/16 01:11:11;;;;;;;0.50;0.30;;;17.70;99.90;;;;;;5044037;28;20452;-81
2023/07/16 01:13:38;;;;;;;0.50;0.30;;;17.60;99.90;;;;;;5044061;28;20535;-82
2023/07/16 01:16:06;;;;;;;0.50;0.50;;;17.60;99.90;;;;;;5044372;28;20468;-81
2023/07/16 01:18:33;;;;;;;0.50;0.40;;;17.50;99.90;;;;;;5044837;28;20437;-82
2023/07/16 01:21:00;;;;;;;0.50;0.40;;;17.50;99.90;;;;;;5043833;28;20477;-82
2023/07/16 01:24:00;;;;;;;0.50;0.40;;;17.40;99.90;;;;;;5042181;28;20531;-81
2023/07/16 01:27:02;;;;;;;0.50;0.30;;;17.30;99.90;;;;;;5041267;28;20445;-80
2023/07/16 01:29:34;;;;;;;0.50;0.40;;;17.30;99.90;;;;;;5040233;28;20435;-81
2023/07/16 01:32:03;;;;;;;0.50;0.37;;;17.20;99.90;;;;;;5042853;28;20447;-81
2023/07/16 01:34:33;;;;;;;0.50;0.40;;;17.20;99.90;;;;;;5043352;28;20463;-81
2023/07/16 01:37:00;;;;;;;0.50;0.40;;;17.30;99.90;;;;;;5043272;28;20452;-81
2023/07/16 01:39:27;;;;;;;0.50;0.30;;;17.30;99.90;;;;;;5042996;28;20445;-80
2023/07/16 01:41:54;;;;;;;0.57;0.50;;;17.30;99.90;;;;;;5041600;28;20687;-81
2023/07/16 01:44:21;;;;;;;0.50;0.50;;;17.30;99.90;;;;;;5039009;28;21079;-81
2023/07/16 01:47:04;;;;;;;0.50;0.40;;;17.30;99.90;;;;;;5038295;28;20445;-81
2023/07/16 01:49:30;;;;;;;0.50;0.40;;;17.20;99.90;;;;;;5037986;28;20440;-82
2023/07/16 01:51:57;;;;;;;0.50;0.30;;;17.20;99.90;;;;;;5038208;28;20432;-79
2023/07/16 01:54:24;;;;;;;0.50;0.40;;;17.20;99.90;;;;;;5036431;28;20471;-81
2023/07/16 01:56:51;;;;;;;0.50;0.50;;;17.20;99.90;;;;;;5035232;28;20455;-80
2023/07/16 01:59:17;;;;;;;0.50;0.30;;;17.30;99.90;;;;;;5037429;28;20459;-83
2023/07/16 02:01:44;;;;;;;0.63;0.63;;;17.30;99.90;;;;;;5039732;28;20558;-83
2023/07/16 02:04:12;;;;;;;0.67;0.67;;;17.30;99.90;;;;;;5043190;28;20491;-83
2023/07/16 02:06:39;;;;;;;0.50;0.40;;;17.30;99.90;;;;;;5042525;28;20457;-83
2023/07/16 02:09:06;;;;;;;0.50;0.40;;;17.30;99.90;;;;;;5043363;28;20447;-82
2023/07/16 02:11:33;;;;;;;0.50;0.40;;;17.30;99.90;;;;;;5041926;28;20443;-82
2023/07/16 02:13:59;;;;;;;0.50;0.40;;;17.30;99.90;;;;;;5042332;28;20535;-82
2023/07/16 02:16:26;;;;;;;0.50;0.43;;;17.40;99.90;;;;;;5043247;28;20527;-81
2023/07/16 02:18:53;;;;;;;0.50;0.30;;;17.40;99.90;;;;;;5036391;28;20453;-79
2023/07/16 02:21:21;;;;;;;0.50;0.30;;;17.40;99.90;;;;;;5046211;28;20552;-82
2023/07/16 02:23:48;;;;;;;0.50;0.30;;;17.40;99.90;;;;;;5044830;28;20479;-82
2023/07/16 02:26:15;;;;;;;0.50;0.40;;;17.50;99.90;;;;;;5045253;28;20850;-82
2023/07/16 02:28:41;;;;;;;0.50;0.30;;;17.40;99.90;;;;;;5044770;28;20445;-82
2023/07/16 02:31:08;;;;;;;0.50;0.40;;;17.40;99.90;;;;;;5045471;28;20445;-82
2023/07/16 02:33:35;;;;;;;0.50;0.30;;;17.40;99.90;;;;;;5044285;28;20450;-82
2023/07/16 02:36:02;;;;;;;0.50;0.40;;;17.40;99.90;;;;;;5044758;28;20476;-82
2023/07/16 02:38:30;;;;;;;0.50;0.40;;;17.30;99.90;;;;;;5044420;28;20453;-82
2023/07/16 02:40:57;;;;;;;0.50;0.40;;;17.30;99.90;;;;;;5044626;28;20454;-80
2023/07/16 02:43:23;;;;;;;0.50;0.40;;;17.40;99.90;;;;;;5043401;28;20443;-82
2023/07/16 02:45:50;;;;;;;0.50;0.40;;;17.40;99.90;;;;;;5043817;28;20479;-81
2023/07/16 02:48:17;;;;;;;0.50;0.40;;;17.40;99.90;;;;;;5044430;28;20959;-82
2023/07/16 02:50:44;;;;;;;0.50;0.40;;;17.50;99.90;;;;;;5043883;28;20468;-82
2023/07/16 02:53:11;;;;;;;0.50;0.30;;;17.50;99.90;;;;;;5045120;28;20442;-83
2023/07/16 02:55:39;;;;;;;0.50;0.30;;;17.50;99.90;;;;;;5044425;28;20457;-82
2023/07/16 02:58:06;;;;;;;0.50;0.40;;;17.60;99.90;;;;;;5044211;28;20512;-82
2023/07/16 03:00:33;;;;;;;1.07;1.07;;;17.60;99.90;;;;;;5044598;28;20480;-82
2023/07/16 03:03:00;;;;;;;0.50;0.40;;;17.70;99.90;;;;;;5044362;28;20921;-82
2023/07/16 03:05:27;;;;;;;0.50;0.37;;;17.70;99.90;;;;;;5044784;28;20544;-82
2023/07/16 03:07:54;;;;;;;0.50;0.37;;;17.60;99.90;;;;;;5043612;28;20498;-81
2023/07/16 03:10:21;;;;;;;0.50;0.40;;;17.60;99.90;;;;;;5043971;28;20506;-81
2023/07/16 03:12:49;;;;;;;0.50;0.30;;;17.50;99.90;;;;;;5043840;28;20445;-82
2023/07/16 03:15:16;;;;;;;0.50;0.40;;;17.50;99.90;;;;;;5044221;28;20536;-81
2023/07/16 03:17:43;;;;;;;0.57;0.50;;;17.40;99.90;;;;;;5042876;28;20440;-82
2023/07/16 03:20:10;;;;;;;0.50;0.37;;;17.40;99.90;;;;;;5044973;28;20944;-82
2023/07/16 03:22:37;;;;;;;0.50;0.40;;;17.40;99.90;;;;;;5042685;28;20489;-82
2023/07/16 03:25:05;;;;;;;0.50;0.30;;;17.30;99.90;;;;;;5043308;28;20456;-82
2023/07/16 03:27:32;;;;;;;0.50;0.50;;;17.30;99.90;;;;;;5040185;28;20472;-82
2023/07/16 03:30:00;;;;;;;0.70;0.40;;;17.30;99.90;;;;;;5038598;28;20449;-82
2023/07/16 03:32:27;;;;;;;0.50;0.40;;;17.20;99.90;;;;;;5038421;28;20446;-83
2023/07/16 03:34:53;;;;;;;0.50;0.30;;;17.30;99.90;;;;;;5039688;28;20465;-82
2023/07/16 03:37:20;;;;;;;0.50;0.40;;;17.20;99.90;;;;;;5037593;28;20539;-83
2023/07/16 03:39:47;;;;;;;1.00;0.50;;;17.20;99.90;;;;;;5038724;28;20453;-81
2023/07/16 03:42:14;;;;;;;0.60;0.50;;;17.30;99.90;;;;;;5038779;28;20472;-83
2023/07/16 03:44:40;;;;;;;0.50;0.40;;;17.30;99.90;;;;;;5039429;28;20472;-83
2023/07/16 03:47:08;;;;;;;2.10;1.10;;;17.30;99.90;;;;;;5038347;28;20963;-83
2023/07/16 03:49:35;;;;;;;3.60;1.83;;;17.30;99.90;;;;;;5037988;28;20451;-83
2023/07/16 03:52:02;;;;;;;0.80;0.50;;;17.30;99.90;;;;;;5036225;28;20449;-83
2023/07/16 03:54:29;;;;;;;0.87;0.87;;;17.20;99.90;;;;;;5037272;28;20463;-81
2023/07/16 03:56:55;;;;;;;0.50;0.40;;;17.20;99.90;;;;;;5039564;28;20460;-82
2023/07/16 03:59:22;;;;;;;0.50;0.40;;;17.20;99.90;;;;;;5037047;28;20453;-83
2023/07/16 04:01:49;;;;;;;0.50;0.40;;;17.20;99.90;;;;;;5036378;28;20486;-81
2023/07/16 04:04:17;;;;;;;1.10;0.93;;;17.20;99.90;;;;;;5035777;28;20479;-82
2023/07/16 04:06:44;;;;;;;0.50;0.40;;;17.20;99.90;;;;;;5027904;28;20447;-82
2023/07/16 04:09:11;;;;;;;0.60;0.40;;;17.20;99.90;;;;;;5040058;28;20451;-82
2023/07/16 04:11:37;;;;;;;0.50;0.30;;;17.20;99.90;;;;;;5040932;28;20459;-82
2023/07/16 04:14:04;;;;;;;1.80;1.67;;;17.20;99.90;;;;;;5040425;28;20454;-82
2023/07/16 04:16:31;;;;;;;0.50;0.40;;;17.20;99.90;;;;;;5042059;28;20444;-82
2023/07/16 04:18:58;;;;;;;1.37;0.80;;;17.10;99.90;;;;;;5040334;28;20600;-81
2023/07/16 04:21:26;;;;;;;0.67;0.67;;;17.10;99.90;;;;;;5041712;28;20449;-83
2023/07/16 04:23:52;;;;;;;0.50;0.40;;;17.10;99.90;;;;;;5041819;28;20477;-82
2023/07/16 04:26:19;;;;;;;0.50;0.40;;;17.10;99.90;;;;;;5042930;28;20444;-81
2023/07/16 04:28:46;;;;;;;0.50;0.40;;;17.10;99.90;;;;;;5041932;28;20456;-82
2023/07/16 04:31:13;;;;;;;0.50;0.40;;;17.10;99.90;;;;;;5042819;28;20441;-82
2023/07/16 04:33:39;;;;;;;0.50;0.40;;;17.10;99.90;;;;;;5043325;28;20468;-83
2023/07/16 04:36:06;;;;;;;0.50;0.40;;;17.20;99.90;;;;;;5041743;28;20468;-79
2023/07/16 04:38:34;;;;;;;0.50;0.40;;;17.20;99.90;;;;;;5042035;28;20460;-81
2023/07/16 04:41:01;;;;;;;0.60;0.40;;;17.20;99.90;;;;;;5039646;28;21120;-83
2023/07/16 04:43:28;;;;;;;1.03;0.97;;;17.20;99.90;;;;;;5040953;28;20476;-82
2023/07/16 04:45:55;;;;;;;0.50;0.30;;;17.20;99.90;;;;;;5041244;28;20468;-83
2023/07/16 04:48:21;;;;;;;0.70;0.70;;;17.20;99.90;;;;;;5040892;28;20455;-82
2023/07/16 04:50:48;;;;;;;0.50;0.40;;;17.20;99.90;;;;;;5041499;28;20449;-83
2023/07/16 04:53:18;;;;;;;0.50;0.30;;;17.20;99.90;;;;;;5041514;28;20967;-82
2023/07/16 04:55:46;;;;;;;0.60;0.57;;;17.20;99.90;;;;;;5032120;28;20468;-82
2023/07/16 04:58:13;;;;;;;0.80;0.53;;;17.20;99.90;;;;;;5042733;28;20447;-81
2023/07/16 05:00:40;;;;;;;0.60;0.40;;;17.20;99.90;;;;;;5040415;28;21253;-82
2023/07/16 05:03:06;;;;;;;0.50;0.50;;;17.20;99.90;;;;;;5040858;28;21035;-83
2023/07/16 05:05:34;;;;;;;0.50;0.40;;;17.30;99.90;;;;;;5040552;28;20835;-82
2023/07/16 05:08:01;;;;;;;0.60;0.50;;;17.30;99.90;;;;;;5041972;28;20452;-82
2023/07/16 05:10:28;;;;;;;0.70;0.40;;;17.30;99.90;;;;;;5040871;28;20444;-81
2023/07/16 05:12:56;;;;;;;1.27;1.17;;;17.30;99.90;;;;;;5041176;28;20451;-82
2023/07/16 05:15:23;;;;;;;1.07;0.97;;;17.40;99.90;;;;;;5040911;28;20476;-83
2023/07/16 05:17:50;;;;;;;1.00;1.00;;;17.40;99.90;;;;;;5040854;28;20449;-82
2023/07/16 05:20:17;;;;;;;0.70;0.50;;;17.40;99.90;;;;;;5039827;28;20535;-82
2023/07/16 05:22:44;;;;;;;0.73;0.73;;;17.50;99.90;;;;;;5040327;28;20476;-81
2023/07/16 05:25:10;;;;;;;0.50;0.30;;;17.50;99.90;;;;;;5039572;28;20468;-83
2023/07/16 05:27:37;;;;;;;0.50;0.40;;;17.50;99.90;;;;;;5041504;28;20457;-83
2023/07/16 05:30:07;;;;;;;1.17;0.80;;;17.60;99.90;;;;;;5040394;28;20961;-83
2023/07/16 05:32:33;;;;;;;1.33;0.60;;;17.60;99.90;;;;;;5039746;28;20528;-82
2023/07/16 05:35:00;;;;;;;0.50;0.40;;;17.70;99.90;;;;;;5040210;28;20476;-83
2023/07/16 05:37:27;;;;;;;0.50;0.30;;;17.70;99.90;;;;;;5040416;28;20453;-83
2023/07/16 05:39:54;;;;;;;2.27;1.67;;;17.70;99.90;;;;;;5039671;28;20539;-82
2023/07/16 05:42:20;;;;;;;1.17;1.10;;;17.80;99.90;;;;;;5038047;28;20488;-81
2023/07/16 05:44:48;;;;;;;0.60;0.50;;;17.80;99.90;;;;;;5038067;28;20475;-82
2023/07/16 05:47:16;;;;;;;0.70;0.50;;;17.90;99.90;;;;;;5039046;28;20445;-82
2023/07/16 05:49:43;;;;;;;0.50;0.50;;;17.90;99.90;;;;;;5042006;28;20467;-82
2023/07/16 05:52:10;;;;;;;1.43;1.00;;;18.00;99.90;;;;;;5039147;28;20455;-81
2023/07/16 05:54:37;;;;;;;0.60;0.47;;;18.00;99.90;;;;;;5037394;28;20475;-81
2023/07/16 05:57:04;;;;;;;0.63;0.60;;;18.00;99.90;;;;;;5037296;28;21010;-82
2023/07/16 05:59:34;;;;;;;6.60;1.17;;;18.00;99.90;;;;;;5038278;28;20452;-81
2023/07/16 06:02:00;;;;;;;0.60;0.50;;;18.10;99.90;;;;;;5036624;28;20464;-80
2023/07/16 06:04:29;;;;;;;3.40;1.10;;;18.10;99.90;;;;;;5035501;28;20464;-81
2023/07/16 06:06:57;;;;;;;0.60;0.50;;;18.20;99.90;;;;;;5034114;28;20459;-82
2023/07/16 06:09:23;;;;;;;1.33;0.60;;;18.20;99.90;;;;;;5034705;28;21100;-81
2023/07/16 06:11:50;;;;;;;0.87;0.87;;;18.20;99.90;;;;;;5033747;28;20441;-81
2023/07/16 06:14:18;;;;;;;0.50;0.37;;;18.20;99.90;;;;;;5033825;28;20467;-81
2023/07/16 06:16:44;;;;;;;1.00;0.70;;;18.40;99.90;;;;;;5037605;28;20444;-83
2023/07/16 06:19:11;;;;;;;1.10;0.70;;;18.50;99.90;;;;;;5040778;28;20440;-81
2023/07/16 06:21:39;;;;;;;0.50;0.40;;;18.70;99.90;;;;;;5037481;28;20450;-81
2023/07/16 06:24:06;;;;;;;0.73;0.73;;;18.70;99.90;;;;;;5047036;28;20488;-83
2023/07/16 06:26:33;;;;;;;1.80;0.60;;;18.90;99.90;;;;;;5042055;28;20488;-82
2023/07/16 06:29:00;;;;;;;3.37;0.87;;;18.90;99.90;;;;;;5042603;28;20440;-83
2023/07/16 06:31:26;;;;;;;0.57;0.40;;;18.90;99.90;;;;;;5042787;28;20507;-81
2023/07/16 06:33:53;;;;;;;0.60;0.50;;;18.90;99.90;;;;;;5042777;28;20447;-82
2023/07/16 06:36:20;;;;;;;0.50;0.40;;;18.80;99.90;;;;;;5042675;28;20509;-81
2023/07/16 06:38:48;;;;;;;0.50;0.30;;;18.90;99.90;;;;;;5042191;28;20443;-83
2023/07/16 06:41:15;;;;;;;1.37;1.27;;;19.00;99.90;;;;;;5041810;28;20828;-82
2023/07/16 06:43:42;;;;;;;0.60;0.43;;;19.30;99.90;;;;;;5041617;28;20498;-82
2023/07/16 06:46:09;;;;;;;2.50;0.97;;;19.70;99.90;;;;;;5041127;28;20477;-82
2023/07/16 06:48:35;;;;;;;0.87;0.57;;;19.90;99.90;;;;;;5041837;28;20475;-84
2023/07/16 06:51:02;;;;;;;0.50;0.50;;;19.80;99.90;;;;;;5038717;28;20833;-82
2023/07/16 06:53:29;;;;;;;0.80;0.70;;;19.90;99.90;;;;;;5039257;28;20543;-83
2023/07/16 06:55:57;;;;;;;3.37;1.37;;;20.40;99.90;;;;;;5039267;28;20472;-83
2023/07/16 06:58:33;;;;;;;0.70;0.70;;;20.50;99.90;;;;;;5039823;28;20453;-83
2023/07/16 07:00:59;;;;;;;0.60;0.50;;;20.50;99.90;;;;;;5032788;28;20435;-80
2023/07/16 07:03:26;;;;;;;0.50;0.37;;;20.60;99.90;;;;;;5038904;28;20479;-81
2023/07/16 07:05:53;;;;;;;1.83;1.73;;;20.70;99.90;;;;;;5040838;28;20465;-83
2023/07/16 07:08:20;;;;;;;0.80;0.80;;;21.00;99.90;;;;;;5039501;28;20453;-83
2023/07/16 07:10:48;;;;;;;0.50;0.30;;;21.10;99.90;;;;;;5038704;28;20451;-81
2023/07/16 07:13:16;;;;;;;0.67;0.50;;;21.60;99.90;;;;;;5040204;28;20463;-83
2023/07/16 07:15:43;;;;;;;1.53;0.60;;;21.60;99.90;;;;;;5040420;28;20527;-82
2023/07/16 07:18:09;;;;;;;0.90;0.77;;;21.70;99.90;;;;;;5038372;28;20503;-83
2023/07/16 07:20:36;;;;;;;15.13;3.13;;;21.70;99.90;;;;;;5037738;28;20470;-83
2023/07/16 07:23:04;;;;;;;0.50;0.33;;;21.90;99.90;;;;;;5037853;28;20479;-80
2023/07/16 07:25:31;;;;;;;0.50;0.30;;;21.70;99.90;;;;;;5037786;28;20496;-82
2023/07/16 07:27:58;;;;;;;0.50;0.30;;;22.50;99.90;;;;;;5039065;28;20448;-82
2023/07/16 07:30:26;;;;;;;0.60;0.50;;;22.90;99.90;;;;;;5037236;28;20459;-83
2023/07/16 07:32:53;;;;;;;0.60;0.50;;;23.20;99.90;;;;;;5030369;28;20440;-82
2023/07/16 07:35:20;;;;;;;0.93;0.93;;;23.40;99.90;;;;;;5038553;28;20471;-83
2023/07/16 07:37:47;;;;;;;0.50;0.40;;;23.30;99.90;;;;;;5038928;28;20443;-84
2023/07/16 07:40:14;;;;;;;3.03;2.80;;;23.30;99.90;;;;;;5037856;28;20444;-83
2023/07/16 07:42:41;;;;;;;0.60;0.50;;;23.40;99.90;;;;;;5036571;28;20437;-83
2023/07/16 07:45:08;;;;;;;1.23;0.87;;;23.10;99.90;;;;;;5039732;28;20553;-84
2023/07/16 07:47:36;;;;;;;1.10;0.83;;;23.30;99.90;;;;;;5040800;28;20452;-83
2023/07/16 07:50:03;;;;;;;0.93;0.63;;;23.20;99.90;;;;;;5040508;28;20452;-83
2023/07/16 07:52:30;;;;;;;0.70;0.60;;;23.20;99.90;;;;;;5039713;28;20441;-81
2023/07/16 07:54:57;;;;;;;0.50;0.40;;;22.80;99.90;;;;;;5041066;28;20460;-82
2023/07/16 07:57:23;;;;;;;0.70;0.67;;;22.60;99.90;;;;;;5042223;28;20452;-83
2023/07/16 07:59:51;;;;;;;3.13;1.80;;;22.80;99.90;;;;;;5041356;28;20521;-83
2023/07/16 08:02:21;;;;;;;0.73;0.73;;;22.90;99.90;;;;;;5039424;28;20976;-83
2023/07/16 08:04:49;;;;;;;1.00;0.97;;;22.90;99.90;;;;;;5039501;28;20492;-82
2023/07/16 08:07:16;;;;;;;0.80;0.80;;;22.90;99.90;;;;;;5041628;28;20944;-84
2023/07/16 08:09:42;;;;;;;1.83;1.23;;;22.80;99.90;;;;;;5038879;28;20472;-84
2023/07/16 08:12:09;;;;;;;1.43;1.33;;;23.00;99.90;;;;;;5039666;28;20933;-83
2023/07/16 08:14:36;;;;;;;0.70;0.50;;;23.90;99.90;;;;;;5040974;28;20460;-83
2023/07/16 08:17:03;;;;;;;0.50;0.40;;;23.90;98.40;;;;;;5039959;28;20444;-83
2023/07/16 08:19:30;;;;;;;0.50;0.40;;;23.30;98.00;;;;;;5040251;28;21147;-82
2023/07/16 08:21:59;;;;;;;1.10;1.10;;;23.60;99.20;;;;;;5040029;28;20441;-83
2023/07/16 08:24:26;;;;;;;0.50;0.40;;;24.00;96.50;;;;;;5039024;28;20484;-84
2023/07/16 08:26:53;;;;;;;1.60;0.80;;;24.30;98.90;;;;;;5039350;28;20471;-80
2023/07/16 08:29:20;;;;;;;1.13;1.13;;;24.00;94.80;;;;;;5039348;28;20812;-82
2023/07/16 08:31:46;;;;;;;0.50;0.30;;;23.70;94.70;;;;;;5040552;28;20449;-82
2023/07/16 08:34:13;;;;;;;0.80;0.70;;;23.30;96.50;;;;;;5040881;28;20472;-83
2023/07/16 08:36:40;;;;;;;2.33;1.60;;;23.40;96.70;;;;;;5040744;28;20475;-83
2023/07/16 08:39:08;;;;;;;1.63;1.37;;;23.20;96.30;;;;;;5041447;28;20437;-82
2023/07/16 08:41:35;;;;;;;0.50;0.40;;;23.20;95.80;;;;;;5039911;28;20482;-82
2023/07/16 08:44:02;;;;;;;0.70;0.70;;;23.10;97.20;;;;;;5040393;28;20813;-83
2023/07/16 08:46:29;;;;;;;2.43;0.80;;;24.00;96.10;;;;;;5039523;28;20441;-83
2023/07/16 08:48:57;;;;;;;0.50;0.37;;;24.30;95.00;;;;;;5039895;28;20485;-81
2023/07/16 08:51:25;;;;;;;0.70;0.50;;;24.40;93.20;;;;;;5041688;28;20959;-83
2023/07/16 08:53:52;;;;;;;0.50;0.40;;;24.40;94.30;;;;;;5040229;28;20448;-81
2023/07/16 08:56:21;;;;;;;1.23;1.23;;;24.20;92.20;;;;;;5040551;28;20477;-83
2023/07/16 08:58:49;;;;;;;0.60;0.60;;;23.80;94.00;;;;;;5040161;28;20445;-82
2023/07/16 09:01:18;;;;;;;3.50;1.17;;;24.00;93.20;;;;;;5039327;28;20460;-81
2023/07/16 09:03:44;;;;;;;0.50;0.40;;;23.10;93.80;;;;;;5038570;28;20480;-83
2023/07/16 09:06:11;;;;;;;0.50;0.40;;;22.50;96.70;;;;;;5039039;28;20880;-83
2023/07/16 09:08:38;;;;;;;1.13;0.70;;;22.80;97.90;;;;;;5039368;28;20441;-83
2023/07/16 09:11:05;;;;;;;1.00;0.87;;;23.40;96.20;;;;;;5039613;28;20452;-81
2023/07/16 09:13:33;;;;;;;0.50;0.50;;;23.30;94.20;;;;;;5039393;28;20452;-84
2023/07/16 09:16:00;;;;;;;0.50;0.30;;;23.80;94.20;;;;;;5031199;28;20522;-83
2023/07/16 09:18:28;;;;;;;0.70;0.70;;;24.30;93.20;;;;;;5041468;28;20446;-83
2023/07/16 09:20:58;;;;;;;2.93;1.00;;;24.40;92.50;;;;;;5038045;28;20444;-81
2023/07/16 09:23:26;;;;;;;0.50;0.30;;;24.40;91.10;;;;;;5037792;28;20572;-81
2023/07/16 09:25:54;;;;;;;1.87;1.50;;;24.60;90.40;;;;;;5038043;28;20526;-80
2023/07/16 09:28:21;;;;;;;0.80;0.80;;;24.10;90.60;;;;;;5038176;28;20821;-82
2023/07/16 09:30:51;;;;;;;0.60;0.40;;;24.60;90.50;;;;;;5037153;28;20449;-83
2023/07/16 09:33:19;;;;;;;1.17;1.07;;;24.50;90.50;;;;;;5037148;28;21315;-83
2023/07/16 09:35:49;;;;;;;0.50;0.30;;;24.00;90.70;;;;;;5037068;28;20560;-82
2023/07/16 09:38:17;;;;;;;0.63;0.63;;;23.80;91.40;;;;;;5039400;28;20448;-83
2023/07/16 09:40:44;;;;;;;1.10;0.90;;;23.60;91.90;;;;;;5039159;28;20459;-81
2023/07/16 09:43:12;;;;;;;0.93;0.90;;;23.10;93.50;;;;;;5038583;28;20449;-83
2023/07/16 09:45:39;;;;;;;1.03;0.93;;;23.50;92.60;;;;;;5036212;28;20860;-82
2023/07/16 09:48:08;;;;;;;1.37;1.07;;;23.60;91.80;;;;;;5036450;28;20941;-82
2023/07/16 09:50:36;;;;;;;1.03;0.97;;;23.40;92.40;;;;;;5037034;28;20445;-82
2023/07/16 09:53:07;;;;;;;1.07;0.80;;;23.00;92.70;;;;;;5036155;28;20445;-80
2023/07/16 09:55:35;;;;;;;0.50;0.30;;;22.70;93.80;;;;;;5034449;28;20552;-81
2023/07/16 09:58:04;;;;;;;2.70;0.90;;;22.50;95.20;;;;;;5029191;28;20440;-84
2023/07/16 10:00:33;;;;;;;0.60;0.50;;;22.30;97.40;;;;;;5037172;28;20517;-81
2023/07/16 10:03:00;;;;;;;0.60;0.50;;;22.70;97.30;;;;;;5034988;28;20447;-82
2023/07/16 10:05:29;;;;;;;0.50;0.40;;;22.60;96.70;;;;;;5034905;28;20492;-82
2023/07/16 10:07:59;;;;;;;0.50;0.30;;;22.50;98.30;;;;;;5035257;28;20444;-79
2023/07/16 10:10:27;;;;;;;0.70;0.70;;;22.70;98.20;;;;;;5036043;28;20444;-82
2023/07/16 10:12:59;;;;;;;0.70;0.70;;;23.00;97.80;;;;;;5033890;28;20445;-82
2023/07/16 10:15:27;;;;;;;2.50;1.50;;;23.40;95.90;;;;;;5033546;28;20471;-81
2023/07/16 10:17:54;;;;;;;1.73;0.93;;;24.00;93.80;;;;;;5033342;28;20449;-81
2023/07/16 10:20:31;;;;;;;0.60;0.53;;;25.00;93.40;;;;;;5033862;28;20445;-81
2023/07/16 10:22:58;;;;;;;0.50;0.30;;;24.80;91.40;;;;;;5032718;28;20452;-82
2023/07/16 10:25:26;;;;;;;2.30;0.93;;;24.90;93.00;;;;;;5038683;28;20476;-80
2023/07/16 10:27:54;;;;;;;0.60;0.40;;;24.80;89.50;;;;;;5041117;28;20448;-81
2023/07/16 10:30:22;;;;;;;0.57;0.40;;;24.20;90.30;;;;;;5041073;28;20449;-84
2023/07/16 10:32:51;;;;;;;0.50;0.40;;;24.10;90.80;;;;;;5042497;28;20449;-83
2023/07/16 10:35:18;;;;;;;1.23;1.00;;;24.40;92.60;;;;;;5042759;28;20461;-83
2023/07/16 10:37:46;;;;;;;0.70;0.50;;;24.50;90.90;;;;;;5041593;28;20904;-82
2023/07/16 10:40:14;;;;;;;0.50;0.40;;;24.40;89.60;;;;;;5041390;28;20466;-81
2023/07/16 10:42:42;;;;;;;1.93;1.10;;;23.70;91.90;;;;;;5039438;28;20515;-83
2023/07/16 10:45:09;;;;;;;1.10;0.50;;;23.50;91.60;;;;;;5040406;28;20484;-83
2023/07/16 10:47:38;;;;;;;1.60;0.80;;;24.30;92.00;;;;;;5040318;28;20445;-83
2023/07/16 10:50:07;;;;;;;0.50;0.40;;;24.50;90.80;;;;;;5032732;28;20439;-84
2023/07/16 10:52:34;;;;;;;8.03;1.03;;;24.10;91.30;;;;;;5040604;28;20448;-83
2023/07/16 10:55:03;;;;;;;1.20;1.20;;;24.20;91.70;;;;;;5041289;28;20944;-82
2023/07/16 10:57:30;;;;;;;0.70;0.50;;;24.10;91.20;;;;;;5042295;28;20468;-83
2023/07/16 11:00:00;;;;;;;0.60;0.40;;;23.50;92.70;;;;;;5042999;28;20447;-84
2023/07/16 11:02:27;;;;;;;2.37;1.83;;;23.00;93.00;;;;;;5042762;28;20448;-83
2023/07/16 11:04:54;;;;;;;1.07;1.07;;;22.60;95.70;;;;;;5040979;28;20538;-82
2023/07/16 11:07:22;;;;;;;0.50;0.30;;;22.50;96.40;;;;;;5042391;28;20889;-83
2023/07/16 11:09:51;;;;;;;1.33;0.70;;;22.40;98.00;;;;;;5039884;28;20483;-83
2023/07/16 11:12:21;;;;;;;0.60;0.60;;;22.50;98.40;;;;;;5038817;28;20460;-83
2023/07/16 11:14:49;;;;;;;1.73;0.90;;;22.60;97.20;;;;;;5037905;28;20535;-83
2023/07/16 11:17:16;;;;;;;0.50;0.40;;;22.40;98.10;;;;;;5037512;28;20453;-83
2023/07/16 11:19:47;;;;;;;0.50;0.40;;;22.30;99.40;;;;;;5037371;28;20438;-84
2023/07/16 11:22:14;;;;;;;0.50;0.50;;;22.40;99.90;;;;;;5038233;28;20448;-83
2023/07/16 11:24:42;;;;;;;0.50;0.30;;;22.50;99.90;;;;;;5039474;28;20488;-83
2023/07/16 11:27:14;;;;;;;0.50;0.40;;;22.60;99.90;;;;;;5039152;28;20817;-82
2023/07/16 11:29:46;;;;;;;0.60;0.50;;;22.60;99.90;;;;;;5038430;28;20444;-82
2023/07/16 11:32:13;;;;;;;0.50;0.40;;;22.50;97.90;;;;;;5038872;28;20440;-83
2023/07/16 11:34:52;;;;;;;0.50;0.30;;;22.30;98.40;;;;;;5036522;28;20546;-82
2023/07/16 11:37:20;;;;;;;0.53;0.37;;;22.30;99.90;;;;;;5039767;28;20441;-83
2023/07/16 11:39:48;;;;;;;0.60;0.50;;;22.30;99.90;;;;;;5038094;28;20440;-84
2023/07/16 11:42:15;;;;;;;0.50;0.40;;;22.20;99.90;;;;;;5037951;28;20433;-84
2023/07/16 11:44:43;;;;;;;0.50;0.30;;;22.00;99.90;;;;;;5037346;28;20495;-82
2023/07/16 11:47:10;;;;;;;0.60;0.50;;;22.00;99.90;;;;;;5038853;28;20917;-84
2023/07/16 11:49:37;;;;;;;0.50;0.30;;;22.20;99.90;;;;;;5038111;28;20479;-84
2023/07/16 11:52:04;;;;;;;0.50;0.33;;;22.40;99.90;;;;;;5036989;28;20520;-81
2023/07/16 11:54:31;;;;;;;0.87;0.87;;;22.70;99.90;;;;;;5039075;28;20464;-84
2023/07/16 11:56:58;;;;;;;0.50;0.40;;;22.80;99.90;;;;;;5037193;28;20444;-83
2023/07/16 11:59:24;;;;;;;0.50;0.30;;;22.80;99.90;;;;;;5037945;28;20444;-83
2023/07/16 12:01:53;;;;;;;0.50;0.30;;;22.70;99.90;;;;;;5037759;28;20463;-83
2023/07/16 12:04:20;;;;;;;1.47;1.00;;;22.70;99.90;;;;;;5036495;28;20483;-83
2023/07/16 12:06:47;;;;;;;0.50;0.30;;;22.80;99.30;;;;;;5037303;28;20442;-83
2023/07/16 12:09:14;;;;;;;0.50;0.40;;;22.70;99.10;;;;;;5037526;28;20471;-83
2023/07/16 12:11:41;;;;;;;0.50;0.40;;;22.60;97.60;;;;;;5037057;28;20531;-84
2023/07/16 12:14:08;;;;;;;0.60;0.60;;;22.60;99.30;;;;;;5029584;28;20442;-83
2023/07/16 12:16:35;;;;;;;0.50;0.40;;;22.60;98.70;;;;;;5037012;28;20440;-83
2023/07/16 12:19:03;;;;;;;1.17;1.00;;;22.60;98.10;;;;;;5037493;28;20455;-81
2023/07/16 12:21:30;;;;;;;1.00;0.80;;;22.60;99.90;;;;;;5035465;28;20534;-84
2023/07/16 12:23:57;;;;;;;0.50;0.40;;;22.50;99.50;;;;;;5036145;28;20440;-83
2023/07/16 12:26:23;;;;;;;1.00;0.90;;;22.40;99.90;;;;;;5035345;28;20490;-83
2023/07/16 12:28:50;;;;;;;15.33;0.80;;;22.10;99.90;;;;;;5035958;28;20456;-83
2023/07/16 12:31:17;;;;;;;0.60;0.60;;;22.10;99.90;;;;;;5040038;28;20444;-82
2023/07/16 12:33:44;;;;;;;0.53;0.53;;;22.30;99.90;;;;;;5039237;28;20444;-83
2023/07/16 12:36:13;;;;;;;0.60;0.50;;;22.30;99.90;;;;;;5037711;28;20463;-83
2023/07/16 12:38:40;;;;;;;0.93;0.93;;;22.50;99.90;;;;;;5038083;28;20533;-82
2023/07/16 12:41:07;;;;;;;1.00;1.00;;;22.70;99.50;;;;;;5038162;28;20454;-82
2023/07/16 12:43:34;;;;;;;0.50;0.30;;;22.70;98.40;;;;;;5038486;28;20445;-82
2023/07/16 12:46:02;;;;;;;0.50;0.40;;;22.70;99.60;;;;;;5038373;28;20894;-82
2023/07/16 12:48:29;;;;;;;0.60;0.40;;;22.70;99.40;;;;;;5038677;28;20494;-81
2023/07/16 12:50:56;;;;;;;1.33;0.90;;;22.70;99.20;;;;;;5036629;28;20450;-81